sensor_id;sensor_type;location;lat;lon;timestamp;temperature;humidity
23717;DHT22;22094;52.130;5.598;2023-09-18T00:00:47;17.60;99.90
23717;DHT22;22094;52.130;5.598;2023-09-18T00:03:20;17.50;99.90
23717;DHT22;22094;52.130;5.598;2023-09-18T00:05:49;17.50;99.90
23717;DHT22;22094;52.130;5.598;2023-09-18T00:08:16;17.50;99.90
23717;DHT22;22094;52.130;5.598;2023-09-18T00:10:42;17.40;99.90
23717;DHT22;22094;52.130;5.598;2023-09-18T00:13:08;17.40;99.90
23717;DHT22;22094;52.130;5.598;2023-09-18T00:15:33;17.40;99.90
23717;DHT22;22094;52.130;5.598;2023-09-18T00:17:59;17.40;99.90
23717;DHT22;22094;52.130;5.598;2023-09-18T00:20:25;17.40;99.90
23717;DHT22;22094;52.130;5.598;2023-09-18T00:22:54;17.40;99.90
23717;DHT22;22094;52.130;5.598;2023-09-18T00:25:19;17.40;99.90
23717;DHT22;22094;52.130;5.598;2023-09-18T00:27:45;17.40;99.90
23717;DHT22;22094;52.130;5.598;2023-09-18T00:30:11;17.40;99.90
23717;DHT22;22094;52.130;5.598;2023-09-18T00:32:37;17.30;99.90
23717;DHT22;22094;52.130;5.598;2023-09-18T00:35:02;17.30;99.90
23717;DHT22;22094;52.130;5.598;2023-09-18T00:37:29;17.40;99.90
23717;DHT22;22094;52.130;5.598;2023-09-18T00:39:54;17.40;99.90
23717;DHT22;22094;52.130;5.598;2023-09-18T00:42:20;17.30;99.90
23717;DHT22;22094;52.130;5.598;2023-09-18T00:44:48;17.40;99.90
23717;DHT22;22094;52.130;5.598;2023-09-18T00:47:14;17.30;99.90
23717;DHT22;22094;52.130;5.598;2023-09-18T00:49:41;17.40;99.90
23717;DHT22;22094;52.130;5.598;2023-09-18T00:52:09;17.40;99.90
23717;DHT22;22094;52.130;5.598;2023-09-18T00:54:37;17.50;99.90
23717;DHT22;22094;52.130;5.598;2023-09-18T00:57:05;17.40;99.90
23717;DHT22;22094;52.130;5.598;2023-09-18T00:59:31;17.50;99.90
23717;DHT22;22094;52.130;5.598;2023-09-18T01:01:57;17.50;99.90
23717;DHT22;22094;52.130;5.598;2023-09-18T01:04:23;17.40;99.90
23717;DHT22;22094;52.130;5.598;2023-09-18T01:06:51;17.40;99.90
23717;DHT22;22094;52.130;5.598;2023-09-18T01:09:18;17.50;99.90
23717;DHT22;22094;52.130;5.598;2023-09-18T01:17:16;17.60;99.90
23717;DHT22;22094;52.130;5.598;2023-09-18T01:19:43;17.60;99.90
23717;DHT22;22094;52.130;5.598;2023-09-18T01:22:19;17.60;99.90
23717;DHT22;22094;52.130;5.598;2023-09-18T01:24:46;17.60;99.90
23717;DHT22;22094;52.130;5.598;2023-09-18T01:27:16;17.60;99.90
23717;DHT22;22094;52.130;5.598;2023-09-18T01:29:43;17.60;99.90
23717;DHT22;22094;52.130;5.598;2023-09-18T01:32:09;17.60;99.90
23717;DHT22;22094;52.130;5.598;2023-09-18T01:34:42;17.70;99.90
23717;DHT22;22094;52.130;5.598;2023-09-18T01:37:10;17.60;99.90
23717;DHT22;22094;52.130;5.598;2023-09-18T01:39:40;17.70;99.90
23717;DHT22;22094;52.130;5.598;2023-09-18T01:42:07;17.70;99.90
23717;DHT22;22094;52.130;5.598;2023-09-18T01:44:35;17.70;99.90
23717;DHT22;22094;52.130;5.598;2023-09-18T01:47:04;17.60;99.90
23717;DHT22;22094;52.130;5.598;2023-09-18T01:49:36;17.80;99.90
23717;DHT22;22094;52.130;5.598;2023-09-18T01:52:02;17.80;99.90
23717;DHT22;22094;52.130;5.598;2023-09-18T01:54:29;17.80;99.90
23717;DHT22;22094;52.130;5.598;2023-09-18T01:56:54;17.80;99.90
23717;DHT22;22094;52.130;5.598;2023-09-18T01:59:21;17.90;99.90
23717;DHT22;22094;52.130;5.598;2023-09-18T02:01:48;18.00;99.90
23717;DHT22;22094;52.130;5.598;2023-09-18T02:04:14;17.80;99.90
23717;DHT22;22094;52.130;5.598;2023-09-18T02:06:39;17.80;99.90
23717;DHT22;22094;52.130;5.598;2023-09-18T02:09:06;17.80;99.90
23717;DHT22;22094;52.130;5.598;2023-09-18T02:11:39;17.90;99.90
23717;DHT22;22094;52.130;5.598;2023-09-18T02:14:05;17.80;99.90
23717;DHT22;22094;52.130;5.598;2023-09-18T02:16:36;17.90;99.90
23717;DHT22;22094;52.130;5.598;2023-09-18T02:19:03;17.90;99.90
23717;DHT22;22094;52.130;5.598;2023-09-18T02:21:29;18.00;99.90
23717;DHT22;22094;52.130;5.598;2023-09-18T02:23:55;18.00;99.90
23717;DHT22;22094;52.130;5.598;2023-09-18T02:26:22;18.10;99.90
23717;DHT22;22094;52.130;5.598;2023-09-18T02:28:48;18.10;99.90
23717;DHT22;22094;52.130;5.598;2023-09-18T02:31:14;18.10;99.90
23717;DHT22;22094;52.130;5.598;2023-09-18T02:33:41;18.20;99.90
23717;DHT22;22094;52.130;5.598;2023-09-18T02:36:07;18.30;99.90
23717;DHT22;22094;52.130;5.598;2023-09-18T02:38:33;18.50;99.90
23717;DHT22;22094;52.130;5.598;2023-09-18T02:40:59;18.30;99.90
23717;DHT22;22094;52.130;5.598;2023-09-18T02:43:25;18.30;99.90
23717;DHT22;22094;52.130;5.598;2023-09-18T02:45:51;18.30;99.90
23717;DHT22;22094;52.130;5.598;2023-09-18T02:48:18;18.20;99.90
23717;DHT22;22094;52.130;5.598;2023-09-18T02:50:44;18.20;99.90
23717;DHT22;22094;52.130;5.598;2023-09-18T02:53:20;18.30;99.90
23717;DHT22;22094;52.130;5.598;2023-09-18T02:55:49;18.30;99.90
23717;DHT22;22094;52.130;5.598;2023-09-18T02:58:15;18.40;99.90
23717;DHT22;22094;52.130;5.598;2023-09-18T03:00:42;18.30;99.90
23717;DHT22;22094;52.130;5.598;2023-09-18T03:03:11;18.30;99.90
23717;DHT22;22094;52.130;5.598;2023-09-18T03:05:38;18.30;99.90
23717;DHT22;22094;52.130;5.598;2023-09-18T03:08:04;18.30;99.90
23717;DHT22;22094;52.130;5.598;2023-09-18T03:10:36;18.20;99.90
23717;DHT22;22094;52.130;5.598;2023-09-18T03:13:03;18.20;99.90
23717;DHT22;22094;52.130;5.598;2023-09-18T03:15:30;18.20;99.90
23717;DHT22;22094;52.130;5.598;2023-09-18T03:17:57;18.10;99.90
23717;DHT22;22094;52.130;5.598;2023-09-18T03:20:23;18.10;99.90
23717;DHT22;22094;52.130;5.598;2023-09-18T03:22:56;18.00;99.90
23717;DHT22;22094;52.130;5.598;2023-09-18T03:25:23;18.10;99.90
23717;DHT22;22094;52.130;5.598;2023-09-18T03:27:51;18.20;99.90
23717;DHT22;22094;52.130;5.598;2023-09-18T03:30:17;18.10;99.90
23717;DHT22;22094;52.130;5.598;2023-09-18T03:32:43;18.10;99.90
23717;DHT22;22094;52.130;5.598;2023-09-18T03:35:09;18.10;99.90
23717;DHT22;22094;52.130;5.598;2023-09-18T03:37:43;18.00;99.90
23717;DHT22;22094;52.130;5.598;2023-09-18T03:40:09;18.00;99.90
23717;DHT22;22094;52.130;5.598;2023-09-18T03:42:35;18.00;99.90
23717;DHT22;22094;52.130;5.598;2023-09-18T03:45:01;18.10;99.90
23717;DHT22;22094;52.130;5.598;2023-09-18T03:47:27;18.00;99.90
23717;DHT22;22094;52.130;5.598;2023-09-18T03:49:52;17.90;99.90
23717;DHT22;22094;52.130;5.598;2023-09-18T03:52:18;18.30;99.90
23717;DHT22;22094;52.130;5.598;2023-09-18T03:54:43;18.10;99.90
23717;DHT22;22094;52.130;5.598;2023-09-18T03:57:09;18.30;99.90
23717;DHT22;22094;52.130;5.598;2023-09-18T03:59:34;18.30;99.90
23717;DHT22;22094;52.130;5.598;2023-09-18T04:02:02;18.40;99.90
23717;DHT22;22094;52.130;5.598;2023-09-18T04:04:29;18.40;99.90
23717;DHT22;22094;52.130;5.598;2023-09-18T04:06:55;18.40;99.90
23717;DHT22;22094;52.130;5.598;2023-09-18T04:09:21;18.30;99.90
23717;DHT22;22094;52.130;5.598;2023-09-18T04:11:46;18.50;99.90
23717;DHT22;22094;52.130;5.598;2023-09-18T04:14:12;18.50;99.90
23717;DHT22;22094;52.130;5.598;2023-09-18T04:16:37;18.50;99.90
23717;DHT22;22094;52.130;5.598;2023-09-18T04:19:05;18.40;99.60
23717;DHT22;22094;52.130;5.598;2023-09-18T04:21:31;18.50;99.90
23717;DHT22;22094;52.130;5.598;2023-09-18T04:23:57;18.50;91.90
23717;DHT22;22094;52.130;5.598;2023-09-18T04:26:24;18.50;85.20
23717;DHT22;22094;52.130;5.598;2023-09-18T04:28:57;18.50;62.60
23717;DHT22;22094;52.130;5.598;2023-09-18T04:31:23;18.40;36.40
23717;DHT22;22094;52.130;5.598;2023-09-18T04:33:49;18.50;48.50
23717;DHT22;22094;52.130;5.598;2023-09-18T04:36:15;18.40;42.60
23717;DHT22;22094;52.130;5.598;2023-09-18T04:38:41;18.40;51.40
23717;DHT22;22094;52.130;5.598;2023-09-18T04:41:06;18.50;39.90
23717;DHT22;22094;52.130;5.598;2023-09-18T04:43:35;18.60;33.30
23717;DHT22;22094;52.130;5.598;2023-09-18T04:46:01;18.50;1.00
23717;DHT22;22094;52.130;5.598;2023-09-18T04:48:29;18.40;1.00
23717;DHT22;22094;52.130;5.598;2023-09-18T04:50:55;18.40;1.00
23717;DHT22;22094;52.130;5.598;2023-09-18T04:53:21;18.40;1.00
23717;DHT22;22094;52.130;5.598;2023-09-18T04:55:46;18.30;1.00
23717;DHT22;22094;52.130;5.598;2023-09-18T04:58:15;18.40;31.60
23717;DHT22;22094;52.130;5.598;2023-09-18T05:00:41;18.60;28.20
23717;DHT22;22094;52.130;5.598;2023-09-18T05:03:07;18.70;1.00
23717;DHT22;22094;52.130;5.598;2023-09-18T05:05:35;18.80;1.00
23717;DHT22;22094;52.130;5.598;2023-09-18T05:08:02;18.90;1.00
23717;DHT22;22094;52.130;5.598;2023-09-18T05:10:33;18.90;1.00
23717;DHT22;22094;52.130;5.598;2023-09-18T05:12:59;18.90;1.00
23717;DHT22;22094;52.130;5.598;2023-09-18T05:15:25;19.00;1.00
23717;DHT22;22094;52.130;5.598;2023-09-18T05:17:58;19.00;1.00
23717;DHT22;22094;52.130;5.598;2023-09-18T05:20:25;18.80;99.90
23717;DHT22;22094;52.130;5.598;2023-09-18T05:22:52;18.70;99.90
23717;DHT22;22094;52.130;5.598;2023-09-18T05:25:22;18.70;99.90
23717;DHT22;22094;52.130;5.598;2023-09-18T05:27:52;18.90;99.90
23717;DHT22;22094;52.130;5.598;2023-09-18T05:30:24;18.70;99.90
23717;DHT22;22094;52.130;5.598;2023-09-18T05:32:53;18.80;99.90
23717;DHT22;22094;52.130;5.598;2023-09-18T05:35:19;18.70;99.90
23717;DHT22;22094;52.130;5.598;2023-09-18T05:37:45;18.70;99.90
23717;DHT22;22094;52.130;5.598;2023-09-18T05:40:12;18.60;99.90
23717;DHT22;22094;52.130;5.598;2023-09-18T05:42:42;18.60;99.90
23717;DHT22;22094;52.130;5.598;2023-09-18T05:45:10;18.60;99.90
23717;DHT22;22094;52.130;5.598;2023-09-18T05:47:36;18.60;99.90
23717;DHT22;22094;52.130;5.598;2023-09-18T05:50:03;18.60;99.90
23717;DHT22;22094;52.130;5.598;2023-09-18T05:52:32;18.60;99.90
23717;DHT22;22094;52.130;5.598;2023-09-18T05:54:57;18.60;99.90
23717;DHT22;22094;52.130;5.598;2023-09-18T05:57:23;18.60;99.90
23717;DHT22;22094;52.130;5.598;2023-09-18T05:59:48;18.80;99.90
23717;DHT22;22094;52.130;5.598;2023-09-18T06:02:14;18.60;99.90
23717;DHT22;22094;52.130;5.598;2023-09-18T06:04:41;18.70;99.90
23717;DHT22;22094;52.130;5.598;2023-09-18T06:07:07;18.60;99.90
23717;DHT22;22094;52.130;5.598;2023-09-18T06:09:33;18.70;99.90
23717;DHT22;22094;52.130;5.598;2023-09-18T06:11:59;18.60;99.90
23717;DHT22;22094;52.130;5.598;2023-09-18T06:14:25;18.60;99.90
23717;DHT22;22094;52.130;5.598;2023-09-18T06:16:51;18.60;99.90
23717;DHT22;22094;52.130;5.598;2023-09-18T06:19:17;18.70;99.90
23717;DHT22;22094;52.130;5.598;2023-09-18T06:21:45;18.60;99.90
23717;DHT22;22094;52.130;5.598;2023-09-18T06:24:11;18.70;99.90
23717;DHT22;22094;52.130;5.598;2023-09-18T06:26:37;18.70;99.90
23717;DHT22;22094;52.130;5.598;2023-09-18T06:29:03;18.90;99.90
23717;DHT22;22094;52.130;5.598;2023-09-18T06:31:29;18.80;99.90
23717;DHT22;22094;52.130;5.598;2023-09-18T06:33:56;18.90;99.90
23717;DHT22;22094;52.130;5.598;2023-09-18T06:36:22;18.80;99.90
23717;DHT22;22094;52.130;5.598;2023-09-18T06:38:48;18.80;99.90
23717;DHT22;22094;52.130;5.598;2023-09-18T06:41:13;18.90;99.90
23717;DHT22;22094;52.130;5.598;2023-09-18T06:43:39;20.20;99.90
23717;DHT22;22094;52.130;5.598;2023-09-18T06:46:07;19.00;99.90
23717;DHT22;22094;52.130;5.598;2023-09-18T06:48:33;19.00;99.90
23717;DHT22;22094;52.130;5.598;2023-09-18T06:50:59;19.20;99.90
23717;DHT22;22094;52.130;5.598;2023-09-18T06:53:28;19.00;99.90
23717;DHT22;22094;52.130;5.598;2023-09-18T06:55:54;19.00;99.90
23717;DHT22;22094;52.130;5.598;2023-09-18T06:58:20;19.00;99.90
23717;DHT22;22094;52.130;5.598;2023-09-18T07:00:46;18.80;99.90
23717;DHT22;22094;52.130;5.598;2023-09-18T07:03:12;20.00;99.90
23717;DHT22;22094;52.130;5.598;2023-09-18T07:05:40;19.10;99.90
23717;DHT22;22094;52.130;5.598;2023-09-18T07:08:06;19.20;99.90
23717;DHT22;22094;52.130;5.598;2023-09-18T07:10:37;19.20;99.90
23717;DHT22;22094;52.130;5.598;2023-09-18T07:13:02;19.30;99.90
23717;DHT22;22094;52.130;5.598;2023-09-18T07:15:28;19.30;99.90
23717;DHT22;22094;52.130;5.598;2023-09-18T07:17:53;19.30;99.90
23717;DHT22;22094;52.130;5.598;2023-09-18T07:20:20;19.30;99.90
23717;DHT22;22094;52.130;5.598;2023-09-18T07:22:48;19.30;99.90
23717;DHT22;22094;52.130;5.598;2023-09-18T07:25:14;19.40;99.90
23717;DHT22;22094;52.130;5.598;2023-09-18T07:27:40;21.20;99.90
23717;DHT22;22094;52.130;5.598;2023-09-18T07:30:10;18.30;99.90
23717;DHT22;22094;52.130;5.598;2023-09-18T07:32:36;16.90;99.90
23717;DHT22;22094;52.130;5.598;2023-09-18T07:35:02;17.10;99.90
23717;DHT22;22094;52.130;5.598;2023-09-18T07:37:30;19.40;99.90
23717;DHT22;22094;52.130;5.598;2023-09-18T07:39:55;19.60;99.90
23717;DHT22;22094;52.130;5.598;2023-09-18T07:42:24;19.30;99.90
23717;DHT22;22094;52.130;5.598;2023-09-18T07:44:50;19.30;99.90
23717;DHT22;22094;52.130;5.598;2023-09-18T07:47:16;19.40;99.90
23717;DHT22;22094;52.130;5.598;2023-09-18T07:49:41;19.80;99.90
23717;DHT22;22094;52.130;5.598;2023-09-18T07:52:07;19.40;99.90
23717;DHT22;22094;52.130;5.598;2023-09-18T07:54:32;19.30;99.90
23717;DHT22;22094;52.130;5.598;2023-09-18T07:56:58;19.40;99.90
23717;DHT22;22094;52.130;5.598;2023-09-18T07:59:25;19.40;99.90
23717;DHT22;22094;52.130;5.598;2023-09-18T08:01:51;19.50;99.90
23717;DHT22;22094;52.130;5.598;2023-09-18T08:04:17;20.00;99.90
23717;DHT22;22094;52.130;5.598;2023-09-18T08:06:43;19.40;99.90
23717;DHT22;22094;52.130;5.598;2023-09-18T08:09:08;19.60;99.90
23717;DHT22;22094;52.130;5.598;2023-09-18T08:11:41;19.70;99.90
23717;DHT22;22094;52.130;5.598;2023-09-18T08:14:08;19.50;99.90
23717;DHT22;22094;52.130;5.598;2023-09-18T08:16:34;19.50;99.90
23717;DHT22;22094;52.130;5.598;2023-09-18T08:19:01;19.50;99.90
23717;DHT22;22094;52.130;5.598;2023-09-18T08:21:27;19.70;99.90
23717;DHT22;22094;52.130;5.598;2023-09-18T08:23:54;19.70;99.90
23717;DHT22;22094;52.130;5.598;2023-09-18T08:26:21;19.70;99.90
23717;DHT22;22094;52.130;5.598;2023-09-18T08:28:47;19.60;99.90
23717;DHT22;22094;52.130;5.598;2023-09-18T08:31:12;19.60;99.90
23717;DHT22;22094;52.130;5.598;2023-09-18T08:33:39;19.60;99.90
23717;DHT22;22094;52.130;5.598;2023-09-18T08:36:05;19.60;99.90
23717;DHT22;22094;52.130;5.598;2023-09-18T08:38:31;19.40;99.90
23717;DHT22;22094;52.130;5.598;2023-09-18T08:40:57;19.00;99.90
23717;DHT22;22094;52.130;5.598;2023-09-18T08:43:24;19.40;99.90
23717;DHT22;22094;52.130;5.598;2023-09-18T08:45:54;17.50;99.90
23717;DHT22;22094;52.130;5.598;2023-09-18T08:48:21;19.80;99.90
23717;DHT22;22094;52.130;5.598;2023-09-18T08:50:51;20.40;99.90
23717;DHT22;22094;52.130;5.598;2023-09-18T08:53:17;20.10;74.30
23717;DHT22;22094;52.130;5.598;2023-09-18T08:58:09;20.20;1.00
23717;DHT22;22094;52.130;5.598;2023-09-18T09:00:37;20.40;1.00
23717;DHT22;22094;52.130;5.598;2023-09-18T09:03:03;20.40;99.90
23717;DHT22;22094;52.130;5.598;2023-09-18T09:05:30;18.50;99.90
23717;DHT22;22094;52.130;5.598;2023-09-18T09:07:56;20.60;1.00
23717;DHT22;22094;52.130;5.598;2023-09-18T09:10:21;19.70;1.00
23717;DHT22;22094;52.130;5.598;2023-09-18T09:12:57;20.40;59.70
23717;DHT22;22094;52.130;5.598;2023-09-18T09:18:11;20.40;1.00
23717;DHT22;22094;52.130;5.598;2023-09-18T09:20:37;20.40;1.00
23717;DHT22;22094;52.130;5.598;2023-09-18T09:23:05;20.80;1.00
23717;DHT22;22094;52.130;5.598;2023-09-18T09:25:32;19.40;1.00
23717;DHT22;22094;52.130;5.598;2023-09-18T09:28:06;21.00;1.00
23717;DHT22;22094;52.130;5.598;2023-09-18T09:30:33;20.60;99.90
23717;DHT22;22094;52.130;5.598;2023-09-18T09:32:59;21.20;1.00
23717;DHT22;22094;52.130;5.598;2023-09-18T09:35:30;20.90;99.90
23717;DHT22;22094;52.130;5.598;2023-09-18T09:38:00;21.00;99.90
23717;DHT22;22094;52.130;5.598;2023-09-18T09:40:27;22.50;99.90
23717;DHT22;22094;52.130;5.598;2023-09-18T09:42:54;23.00;93.00
23717;DHT22;22094;52.130;5.598;2023-09-18T09:45:29;22.50;99.90
23717;DHT22;22094;52.130;5.598;2023-09-18T09:47:56;22.00;99.90
23717;DHT22;22094;52.130;5.598;2023-09-18T09:50:22;20.20;16.80
23717;DHT22;22094;52.130;5.598;2023-09-18T09:52:49;21.90;12.10
23717;DHT22;22094;52.130;5.598;2023-09-18T09:55:26;21.90;3.80
23717;DHT22;22094;52.130;5.598;2023-09-18T09:58:01;20.40;1.00
23717;DHT22;22094;52.130;5.598;2023-09-18T10:00:31;21.90;1.00
23717;DHT22;22094;52.130;5.598;2023-09-18T10:03:03;22.40;1.00
23717;DHT22;22094;52.130;5.598;2023-09-18T10:05:32;22.40;1.00
23717;DHT22;22094;52.130;5.598;2023-09-18T10:07:59;22.20;1.00
23717;DHT22;22094;52.130;5.598;2023-09-18T10:10:34;23.70;1.00
23717;DHT22;22094;52.130;5.598;2023-09-18T10:13:04;22.00;1.00
23717;DHT22;22094;52.130;5.598;2023-09-18T10:15:34;22.10;1.00
23717;DHT22;22094;52.130;5.598;2023-09-18T10:18:09;21.90;1.00
23717;DHT22;22094;52.130;5.598;2023-09-18T10:20:40;19.60;1.00
23717;DHT22;22094;52.130;5.598;2023-09-18T10:23:15;20.70;1.00
23717;DHT22;22094;52.130;5.598;2023-09-18T10:25:50;21.30;1.00
23717;DHT22;22094;52.130;5.598;2023-09-18T10:28:21;21.30;1.00
23717;DHT22;22094;52.130;5.598;2023-09-18T10:30:49;21.50;1.00
23717;DHT22;22094;52.130;5.598;2023-09-18T10:33:16;21.60;1.00
23717;DHT22;22094;52.130;5.598;2023-09-18T10:35:43;22.80;1.00
23717;DHT22;22094;52.130;5.598;2023-09-18T10:38:09;21.50;1.00
23717;DHT22;22094;52.130;5.598;2023-09-18T10:40:36;21.60;1.00
23717;DHT22;22094;52.130;5.598;2023-09-18T10:43:04;21.60;1.00
23717;DHT22;22094;52.130;5.598;2023-09-18T10:48:01;21.30;1.00
23717;DHT22;22094;52.130;5.598;2023-09-18T10:50:29;22.40;1.00
23717;DHT22;22094;52.130;5.598;2023-09-18T10:52:57;22.10;1.00
23717;DHT22;22094;52.130;5.598;2023-09-18T10:55:24;24.20;1.00
23717;DHT22;22094;52.130;5.598;2023-09-18T10:57:56;21.70;1.00
23717;DHT22;22094;52.130;5.598;2023-09-18T11:00:26;21.80;1.00
23717;DHT22;22094;52.130;5.598;2023-09-18T11:02:53;22.10;1.00
23717;DHT22;22094;52.130;5.598;2023-09-18T11:05:29;21.50;1.00
23717;DHT22;22094;52.130;5.598;2023-09-18T11:13:36;22.00;1.00
23717;DHT22;22094;52.130;5.598;2023-09-18T11:16:16;21.30;1.00
23717;DHT22;22094;52.130;5.598;2023-09-18T11:18:42;22.50;1.00
23717;DHT22;22094;52.130;5.598;2023-09-18T11:21:12;22.50;1.00
23717;DHT22;22094;52.130;5.598;2023-09-18T11:23:39;22.80;1.00
23717;DHT22;22094;52.130;5.598;2023-09-18T11:26:11;22.90;1.00
23717;DHT22;22094;52.130;5.598;2023-09-18T11:28:37;23.60;1.00
23717;DHT22;22094;52.130;5.598;2023-09-18T11:31:04;23.30;1.00
23717;DHT22;22094;52.130;5.598;2023-09-18T11:33:40;23.50;1.00
23717;DHT22;22094;52.130;5.598;2023-09-18T11:36:08;23.60;1.00
23717;DHT22;22094;52.130;5.598;2023-09-18T11:38:57;24.30;1.00
23717;DHT22;22094;52.130;5.598;2023-09-18T11:41:32;23.50;1.00
23717;DHT22;22094;52.130;5.598;2023-09-18T11:46:51;24.10;1.00
23717;DHT22;22094;52.130;5.598;2023-09-18T11:49:24;23.10;1.00
23717;DHT22;22094;52.130;5.598;2023-09-18T11:51:53;23.10;1.00
23717;DHT22;22094;52.130;5.598;2023-09-18T11:56:46;21.80;1.00
23717;DHT22;22094;52.130;5.598;2023-09-18T12:01:39;24.20;1.00
23717;DHT22;22094;52.130;5.598;2023-09-18T12:06:39;23.60;1.00
23717;DHT22;22094;52.130;5.598;2023-09-18T12:09:06;22.90;1.00
23717;DHT22;22094;52.130;5.598;2023-09-18T12:11:33;23.20;1.00
23717;DHT22;22094;52.130;5.598;2023-09-18T12:14:02;23.20;1.00
23717;DHT22;22094;52.130;5.598;2023-09-18T12:16:29;23.00;1.00
23717;DHT22;22094;52.130;5.598;2023-09-18T12:18:55;23.20;1.00
23717;DHT22;22094;52.130;5.598;2023-09-18T12:21:22;22.50;1.00
23717;DHT22;22094;52.130;5.598;2023-09-18T12:23:48;23.60;1.00
23717;DHT22;22094;52.130;5.598;2023-09-18T12:26:15;22.80;1.00
23717;DHT22;22094;52.130;5.598;2023-09-18T12:28:42;22.70;1.00
23717;DHT22;22094;52.130;5.598;2023-09-18T12:31:15;22.60;1.00
23717;DHT22;22094;52.130;5.598;2023-09-18T12:33:42;22.50;1.00
23717;DHT22;22094;52.130;5.598;2023-09-18T12:36:19;22.80;1.00
23717;DHT22;22094;52.130;5.598;2023-09-18T12:38:55;22.70;1.00
23717;DHT22;22094;52.130;5.598;2023-09-18T12:41:23;24.40;1.00
23717;DHT22;22094;52.130;5.598;2023-09-18T12:43:49;23.10;1.00
23717;DHT22;22094;52.130;5.598;2023-09-18T12:46:14;23.20;1.00
23717;DHT22;22094;52.130;5.598;2023-09-18T12:51:13;23.00;1.00
23717;DHT22;22094;52.130;5.598;2023-09-18T12:53:40;21.50;1.00
23717;DHT22;22094;52.130;5.598;2023-09-18T12:56:14;23.10;1.00
23717;DHT22;22094;52.130;5.598;2023-09-18T12:58:42;23.10;1.00
23717;DHT22;22094;52.130;5.598;2023-09-18T13:01:10;23.70;1.00
23717;DHT22;22094;52.130;5.598;2023-09-18T13:03:43;23.60;1.00
23717;DHT22;22094;52.130;5.598;2023-09-18T13:06:17;23.80;1.00
23717;DHT22;22094;52.130;5.598;2023-09-18T13:08:43;23.90;1.00
23717;DHT22;22094;52.130;5.598;2023-09-18T13:11:09;23.10;1.00
23717;DHT22;22094;52.130;5.598;2023-09-18T13:16:06;23.60;1.00
23717;DHT22;22094;52.130;5.598;2023-09-18T13:18:31;23.30;1.00
23717;DHT22;22094;52.130;5.598;2023-09-18T13:20:57;23.50;1.00
23717;DHT22;22094;52.130;5.598;2023-09-18T13:23:32;23.60;1.00
23717;DHT22;22094;52.130;5.598;2023-09-18T13:26:00;23.90;1.00
23717;DHT22;22094;52.130;5.598;2023-09-18T13:28:25;25.70;1.00
23717;DHT22;22094;52.130;5.598;2023-09-18T13:30:51;23.90;1.00
23717;DHT22;22094;52.130;5.598;2023-09-18T13:33:17;24.10;1.00
23717;DHT22;22094;52.130;5.598;2023-09-18T13:35:45;24.10;1.00
23717;DHT22;22094;52.130;5.598;2023-09-18T13:38:11;24.30;1.00
23717;DHT22;22094;52.130;5.598;2023-09-18T13:40:40;24.30;1.00
23717;DHT22;22094;52.130;5.598;2023-09-18T13:43:09;24.60;1.00
23717;DHT22;22094;52.130;5.598;2023-09-18T13:45:35;24.10;1.00
23717;DHT22;22094;52.130;5.598;2023-09-18T13:48:04;25.80;1.00
23717;DHT22;22094;52.130;5.598;2023-09-18T13:50:30;23.80;1.00
23717;DHT22;22094;52.130;5.598;2023-09-18T13:57:48;25.60;1.00
23717;DHT22;22094;52.130;5.598;2023-09-18T14:02:40;24.60;1.00
23717;DHT22;22094;52.130;5.598;2023-09-18T14:05:07;24.80;1.00
23717;DHT22;22094;52.130;5.598;2023-09-18T14:07:33;25.00;1.00
23717;DHT22;22094;52.130;5.598;2023-09-18T14:09:59;24.60;1.00
23717;DHT22;22094;52.130;5.598;2023-09-18T14:12:28;25.20;1.00
23717;DHT22;22094;52.130;5.598;2023-09-18T14:14:55;23.80;1.00
23717;DHT22;22094;52.130;5.598;2023-09-18T14:17:21;24.30;1.00
23717;DHT22;22094;52.130;5.598;2023-09-18T14:19:47;25.70;1.00
23717;DHT22;22094;52.130;5.598;2023-09-18T14:22:13;25.20;1.00
23717;DHT22;22094;52.130;5.598;2023-09-18T14:24:39;22.20;1.00
23717;DHT22;22094;52.130;5.598;2023-09-18T14:27:06;23.80;1.00
23717;DHT22;22094;52.130;5.598;2023-09-18T14:29:33;23.90;1.00
23717;DHT22;22094;52.130;5.598;2023-09-18T14:32:01;24.00;1.00
23717;DHT22;22094;52.130;5.598;2023-09-18T14:34:28;23.70;1.00
23717;DHT22;22094;52.130;5.598;2023-09-18T14:36:55;23.80;1.00
23717;DHT22;22094;52.130;5.598;2023-09-18T14:39:21;25.00;1.00
23717;DHT22;22094;52.130;5.598;2023-09-18T14:44:13;23.50;1.00
23717;DHT22;22094;52.130;5.598;2023-09-18T14:46:39;23.60;1.00
23717;DHT22;22094;52.130;5.598;2023-09-18T14:49:05;23.10;1.00
23717;DHT22;22094;52.130;5.598;2023-09-18T14:51:33;23.40;1.00
23717;DHT22;22094;52.130;5.598;2023-09-18T14:53:59;22.80;1.00
23717;DHT22;22094;52.130;5.598;2023-09-18T14:56:25;22.70;1.00
23717;DHT22;22094;52.130;5.598;2023-09-18T14:58:50;24.50;1.00
23717;DHT22;22094;52.130;5.598;2023-09-18T15:01:18;23.20;1.00
23717;DHT22;22094;52.130;5.598;2023-09-18T15:03:44;22.40;1.00
23717;DHT22;22094;52.130;5.598;2023-09-18T15:06:16;22.30;1.00
23717;DHT22;22094;52.130;5.598;2023-09-18T15:08:42;21.80;1.00
23717;DHT22;22094;52.130;5.598;2023-09-18T15:11:07;22.20;1.00
23717;DHT22;22094;52.130;5.598;2023-09-18T15:13:34;22.00;1.00
23717;DHT22;22094;52.130;5.598;2023-09-18T15:16:04;22.00;1.00
23717;DHT22;22094;52.130;5.598;2023-09-18T15:18:30;21.90;1.00
23717;DHT22;22094;52.130;5.598;2023-09-18T15:20:56;21.70;1.00
23717;DHT22;22094;52.130;5.598;2023-09-18T15:23:22;20.90;99.90
23717;DHT22;22094;52.130;5.598;2023-09-18T15:25:49;19.30;99.90
23717;DHT22;22094;52.130;5.598;2023-09-18T15:28:15;18.80;99.90
23717;DHT22;22094;52.130;5.598;2023-09-18T15:30:42;18.50;1.00
23717;DHT22;22094;52.130;5.598;2023-09-18T15:33:08;18.10;99.90
23717;DHT22;22094;52.130;5.598;2023-09-18T15:35:33;17.80;1.00
23717;DHT22;22094;52.130;5.598;2023-09-18T15:37:59;17.50;1.00
23717;DHT22;22094;52.130;5.598;2023-09-18T15:40:27;17.20;99.90
23717;DHT22;22094;52.130;5.598;2023-09-18T15:42:52;17.20;99.90
23717;DHT22;22094;52.130;5.598;2023-09-18T15:45:18;17.00;99.90
23717;DHT22;22094;52.130;5.598;2023-09-18T15:47:44;16.90;99.90
23717;DHT22;22094;52.130;5.598;2023-09-18T15:50:11;16.90;99.90
23717;DHT22;22094;52.130;5.598;2023-09-18T15:52:37;16.80;99.90
23717;DHT22;22094;52.130;5.598;2023-09-18T15:55:04;16.70;99.90
23717;DHT22;22094;52.130;5.598;2023-09-18T15:57:35;16.60;1.00
23717;DHT22;22094;52.130;5.598;2023-09-18T16:00:06;16.50;1.00
23717;DHT22;22094;52.130;5.598;2023-09-18T16:02:32;16.40;1.00
23717;DHT22;22094;52.130;5.598;2023-09-18T16:04:59;16.40;1.00
23717;DHT22;22094;52.130;5.598;2023-09-18T16:07:26;16.40;1.00
23717;DHT22;22094;52.130;5.598;2023-09-18T16:09:52;16.60;1.00
23717;DHT22;22094;52.130;5.598;2023-09-18T16:12:19;16.50;1.00
23717;DHT22;22094;52.130;5.598;2023-09-18T16:14:45;16.60;1.00
23717;DHT22;22094;52.130;5.598;2023-09-18T16:17:10;17.10;1.00
23717;DHT22;22094;52.130;5.598;2023-09-18T16:19:37;18.00;1.00
23717;DHT22;22094;52.130;5.598;2023-09-18T16:22:03;18.90;1.00